createdAt,value
2022-10-22T00:02:22.553Z,12.20
2022-10-22T00:04:49.104Z,11.03
2022-10-22T00:07:15.615Z,12.70
2022-10-22T00:09:42.132Z,11.30
2022-10-22T00:12:08.637Z,11.67
2022-10-22T00:14:35.157Z,11.13
2022-10-22T00:17:01.668Z,10.80
2022-10-22T00:19:28.176Z,11.17
2022-10-22T00:21:54.683Z,10.83
2022-10-22T00:24:21.303Z,11.27
2022-10-22T00:26:47.774Z,11.33
2022-10-22T00:29:14.281Z,12.13
2022-10-22T00:31:40.836Z,12.97
2022-10-22T00:34:07.352Z,12.60
2022-10-22T00:36:33.861Z,11.50
2022-10-22T00:39:00.399Z,12.63
2022-10-22T00:41:26.905Z,12.03
2022-10-22T00:43:53.407Z,10.70
2022-10-22T00:46:19.948Z,10.67
2022-10-22T00:48:46.480Z,10.83
2022-10-22T00:51:13.002Z,10.43
2022-10-22T00:53:39.523Z,9.97
2022-10-22T00:56:06.120Z,10.33
2022-10-22T00:58:32.640Z,10.13
2022-10-22T01:00:59.223Z,9.53
2022-10-22T01:03:25.810Z,10.07
2022-10-22T01:05:52.276Z,10.47
2022-10-22T01:08:19.045Z,11.20
2022-10-22T01:10:45.549Z,11.73
2022-10-22T01:13:12.058Z,11.60
2022-10-22T01:15:38.604Z,12.77
2022-10-22T01:18:05.109Z,12.87
2022-10-22T01:20:31.621Z,12.90
2022-10-22T01:22:58.156Z,13.03
2022-10-22T01:25:24.620Z,12.77
2022-10-22T01:27:51.134Z,12.70
2022-10-22T01:30:17.636Z,11.93
2022-10-22T01:32:44.136Z,11.77
2022-10-22T01:35:10.608Z,10.67
2022-10-22T01:37:37.281Z,9.43
2022-10-22T01:40:04.077Z,9.67
2022-10-22T01:42:30.584Z,8.63
2022-10-22T01:44:57.122Z,9.17
2022-10-22T01:47:23.645Z,9.47
2022-10-22T01:49:50.164Z,9.07
2022-10-22T01:52:16.643Z,9.27
2022-10-22T01:54:43.172Z,8.90
2022-10-22T01:57:09.669Z,10.03
2022-10-22T01:59:36.141Z,10.47
2022-10-22T02:02:02.774Z,11.90
2022-10-22T02:04:29.237Z,11.67
2022-10-22T02:06:55.762Z,11.47
2022-10-22T02:09:22.309Z,11.33
2022-10-22T02:11:48.812Z,10.00
2022-10-22T02:14:15.361Z,11.10
2022-10-22T02:16:41.861Z,11.37
2022-10-22T02:19:08.365Z,11.10
2022-10-22T02:21:34.909Z,11.30
2022-10-22T02:24:01.430Z,12.87
2022-10-22T02:26:27.939Z,10.37
2022-10-22T02:28:54.494Z,10.10
2022-10-22T02:31:20.996Z,10.47
2022-10-22T02:33:47.500Z,11.47
2022-10-22T02:36:14.054Z,11.83
2022-10-22T02:38:40.761Z,11.47
2022-10-22T02:41:07.273Z,10.73
2022-10-22T02:43:33.785Z,10.90
2022-10-22T02:46:00.296Z,10.47
2022-10-22T02:48:26.816Z,9.30
2022-10-22T02:50:53.380Z,8.37
2022-10-22T02:53:19.893Z,8.77
2022-10-22T02:55:46.396Z,8.03
2022-10-22T02:58:12.890Z,8.03
2022-10-22T03:00:39.432Z,7.40
2022-10-22T03:03:05.998Z,8.43
2022-10-22T03:05:32.638Z,7.60
2022-10-22T03:07:59.113Z,7.07
2022-10-22T03:10:25.620Z,7.20
2022-10-22T03:12:52.140Z,10.63
2022-10-22T03:15:18.695Z,9.87
2022-10-22T03:17:45.281Z,9.30
2022-10-22T03:20:11.805Z,11.20
2022-10-22T03:22:38.317Z,10.13
2022-10-22T03:25:04.859Z,10.90
2022-10-22T03:27:31.375Z,9.00
2022-10-22T03:29:57.883Z,7.10
2022-10-22T03:32:24.433Z,7.27
2022-10-22T03:34:51.008Z,7.57
2022-10-22T03:37:17.580Z,9.13
2022-10-22T03:39:44.120Z,8.93
2022-10-22T03:42:10.625Z,9.10
2022-10-22T03:44:37.133Z,7.97
2022-10-22T03:47:03.652Z,7.40
2022-10-22T03:49:30.161Z,6.90
2022-10-22T03:51:56.684Z,6.80
2022-10-22T03:54:23.200Z,6.03
2022-10-22T03:56:49.745Z,7.30
2022-10-22T03:59:16.260Z,7.17
2022-10-22T04:01:42.789Z,6.77
2022-10-22T04:04:09.344Z,7.03
2022-10-22T04:06:35.851Z,7.40
2022-10-22T04:09:02.447Z,7.37
2022-10-22T04:11:29.053Z,7.67
2022-10-22T04:13:55.563Z,7.43
2022-10-22T04:16:22.614Z,8.03
2022-10-22T04:18:50.515Z,7.50
2022-10-22T04:21:17.021Z,7.17
2022-10-22T04:23:43.568Z,6.73
2022-10-22T04:26:10.146Z,6.90
2022-10-22T04:28:36.648Z,8.37
2022-10-22T04:31:03.260Z,7.47
2022-10-22T04:33:30.030Z,8.70
2022-10-22T04:35:56.537Z,8.77
2022-10-22T04:38:23.205Z,8.20
2022-10-22T04:40:49.732Z,8.40
2022-10-22T04:43:16.275Z,8.53
2022-10-22T04:45:42.787Z,8.60
2022-10-22T04:48:09.300Z,8.13
2022-10-22T04:50:35.865Z,8.17
2022-10-22T04:53:02.397Z,8.27
2022-10-22T04:58:00.338Z,8.30
2022-10-22T05:00:26.844Z,9.03
2022-10-22T05:02:53.357Z,7.03
2022-10-22T05:05:19.885Z,7.63
2022-10-22T05:07:46.393Z,6.93
2022-10-22T05:10:12.901Z,7.37
2022-10-22T05:12:39.432Z,7.70
2022-10-22T05:15:05.973Z,8.03
2022-10-22T05:17:32.451Z,8.13
2022-10-22T05:19:59.011Z,8.60
2022-10-22T05:22:25.543Z,7.30
2022-10-22T05:24:52.066Z,8.43
2022-10-22T05:29:46.057Z,9.03
2022-10-22T05:32:12.572Z,10.30
2022-10-22T05:34:39.094Z,16.30
2022-10-22T05:37:05.651Z,14.67
2022-10-22T05:39:32.156Z,8.93
2022-10-22T05:41:58.665Z,7.40
2022-10-22T05:44:25.161Z,8.57
2022-10-22T05:46:51.704Z,9.23
2022-10-22T05:49:18.213Z,11.97
2022-10-22T05:51:44.761Z,57.83
2022-10-22T05:54:11.270Z,13.87
2022-10-22T05:56:37.944Z,52.10
2022-10-22T05:59:04.702Z,28.83
2022-10-22T06:01:31.417Z,14.17
2022-10-22T06:03:57.926Z,13.07
2022-10-22T06:06:24.453Z,15.67
2022-10-22T06:08:51.024Z,16.53
2022-10-22T06:11:17.528Z,12.90
2022-10-22T06:13:44.037Z,9.90
2022-10-22T06:16:10.579Z,10.63
2022-10-22T06:18:37.089Z,10.87
2022-10-22T06:21:03.601Z,14.27
2022-10-22T06:23:30.157Z,21.67
2022-10-22T06:25:56.659Z,18.17
2022-10-22T06:30:50.638Z,19.43
2022-10-22T06:33:17.150Z,21.63
2022-10-22T06:35:43.653Z,18.90
2022-10-22T06:38:10.157Z,18.50
2022-10-22T06:40:36.693Z,14.67
2022-10-22T06:43:03.197Z,14.43
2022-10-22T06:45:29.701Z,18.03
2022-10-22T06:47:56.234Z,21.77
2022-10-22T06:50:22.724Z,29.13
2022-10-22T06:52:49.248Z,18.03
2022-10-22T06:55:15.773Z,19.17
2022-10-22T06:57:42.643Z,17.63
2022-10-22T07:00:09.598Z,19.90
2022-10-22T07:02:36.114Z,21.50
2022-10-22T07:05:02.631Z,23.23
2022-10-22T07:07:29.170Z,22.57
2022-10-22T07:09:55.697Z,22.60
2022-10-22T07:12:22.231Z,22.57
2022-10-22T07:14:48.762Z,22.87
2022-10-22T07:17:15.269Z,21.27
2022-10-22T07:19:41.777Z,23.23
2022-10-22T07:22:08.331Z,21.33
2022-10-22T07:24:34.838Z,20.37
2022-10-22T07:27:01.361Z,20.40
2022-10-22T07:29:27.864Z,20.70
2022-10-22T07:31:54.325Z,19.47
2022-10-22T07:36:52.246Z,18.87
2022-10-22T07:39:18.750Z,19.97
2022-10-22T07:41:45.258Z,19.07
2022-10-22T07:44:11.747Z,19.63
2022-10-22T07:46:38.266Z,20.40
2022-10-22T07:49:04.825Z,20.63
2022-10-22T07:51:31.336Z,19.23
2022-10-22T07:53:57.840Z,18.10
2022-10-22T07:56:24.362Z,16.37
2022-10-22T07:58:50.908Z,16.43
2022-10-22T08:01:17.573Z,17.80
2022-10-22T08:03:44.106Z,15.17
2022-10-22T08:06:10.589Z,14.97
2022-10-22T08:08:37.180Z,15.17
2022-10-22T08:11:03.657Z,14.47
2022-10-22T08:13:30.173Z,13.93
2022-10-22T08:15:57.728Z,14.10
2022-10-22T08:18:24.409Z,12.37
2022-10-22T08:20:50.885Z,13.13
2022-10-22T08:23:17.381Z,11.00
2022-10-22T08:25:43.852Z,9.90
2022-10-22T08:28:10.378Z,8.70
2022-10-22T08:30:37.068Z,11.97
2022-10-22T08:33:03.932Z,8.53
2022-10-22T08:35:30.418Z,9.63
2022-10-22T08:37:56.944Z,13.07
2022-10-22T08:40:23.465Z,8.67
2022-10-22T08:42:49.978Z,8.57
2022-10-22T08:45:16.553Z,16.60
2022-10-22T08:47:43.088Z,20.60
2022-10-22T08:50:19.659Z,14.00
2022-10-22T08:52:57.249Z,6.20
2022-10-22T08:55:24.783Z,6.67
2022-10-22T08:57:52.592Z,6.30
2022-10-22T09:00:19.387Z,6.23
2022-10-22T09:02:46.298Z,6.40
2022-10-22T09:07:54.614Z,5.73
2022-10-22T09:10:21.181Z,5.37
2022-10-22T09:12:47.801Z,5.50
2022-10-22T09:15:14.480Z,4.80
2022-10-22T09:17:41.444Z,4.97
2022-10-22T09:20:08.195Z,4.80
2022-10-22T09:25:01.726Z,4.70
2022-10-22T09:27:28.206Z,4.53
2022-10-22T09:29:54.737Z,4.17
2022-10-22T09:32:21.380Z,4.40
2022-10-22T09:34:47.872Z,3.70
2022-10-22T09:37:14.394Z,4.40
2022-10-22T09:39:40.938Z,4.30
2022-10-22T09:42:07.471Z,3.87
2022-10-22T09:44:34.117Z,4.70
2022-10-22T09:47:00.640Z,4.07
2022-10-22T09:49:27.277Z,4.27
2022-10-22T09:51:53.798Z,4.00
2022-10-22T09:54:20.364Z,3.70
2022-10-22T09:56:46.906Z,4.00
2022-10-22T09:59:13.466Z,3.30
2022-10-22T10:01:40.142Z,3.67
2022-10-22T10:04:09.577Z,3.40
2022-10-22T10:06:36.563Z,3.40
2022-10-22T10:09:03.177Z,3.37
2022-10-22T10:11:29.957Z,3.10
2022-10-22T10:13:56.484Z,3.10
2022-10-22T10:16:23.055Z,3.10
2022-10-22T10:18:49.610Z,3.30
2022-10-22T10:21:16.099Z,3.40
2022-10-22T10:23:42.777Z,3.60
2022-10-22T10:26:09.315Z,3.00
2022-10-22T10:28:35.789Z,2.73
2022-10-22T10:31:02.349Z,2.67
2022-10-22T10:33:28.961Z,1.93
2022-10-22T10:35:55.453Z,1.93
2022-10-22T10:38:24.669Z,2.17
2022-10-22T10:40:53.852Z,1.80
2022-10-22T10:43:20.491Z,1.87
2022-10-22T10:45:47.152Z,2.03
2022-10-22T10:48:13.679Z,1.80
2022-10-22T10:50:40.321Z,2.00
2022-10-22T10:53:06.851Z,2.13
2022-10-22T10:55:33.332Z,2.40
2022-10-22T10:57:59.869Z,2.13
2022-10-22T11:00:26.409Z,2.30
2022-10-22T11:02:52.912Z,2.20
2022-10-22T11:05:19.479Z,2.07
2022-10-22T11:07:46.206Z,2.00
2022-10-22T11:10:12.985Z,1.90
2022-10-22T11:12:39.852Z,1.90
2022-10-22T11:15:20.609Z,2.77
2022-10-22T11:17:47.097Z,2.53
2022-10-22T11:20:13.632Z,2.23
2022-10-22T11:22:47.250Z,2.50
2022-10-22T11:25:21.607Z,2.17
2022-10-22T11:27:48.205Z,2.40
2022-10-22T11:30:14.803Z,2.30
2022-10-22T11:32:41.688Z,2.50
2022-10-22T11:35:08.523Z,2.57
2022-10-22T11:37:35.056Z,2.50
2022-10-22T11:40:01.620Z,8.60
2022-10-22T11:42:28.103Z,3.80
2022-10-22T11:44:54.747Z,4.37
2022-10-22T11:47:21.265Z,2.80
2022-10-22T11:49:47.793Z,2.27
2022-10-22T11:52:14.272Z,2.20
2022-10-22T11:54:40.925Z,2.13
2022-10-22T11:57:15.463Z,2.53
2022-10-22T11:59:42.121Z,2.33
2022-10-22T12:02:08.770Z,2.97
2022-10-22T12:04:35.633Z,2.83
2022-10-22T12:07:02.345Z,2.43
2022-10-22T12:09:29.035Z,3.00
2022-10-22T12:11:55.894Z,2.13
2022-10-22T12:14:22.410Z,2.70
2022-10-22T12:16:56.094Z,2.40
2022-10-22T12:19:23.371Z,1.80
2022-10-22T12:21:49.907Z,2.10
2022-10-22T12:24:16.390Z,1.90
2022-10-22T12:26:42.905Z,2.10
2022-10-22T12:29:09.429Z,1.77
2022-10-22T12:31:36.071Z,2.60
2022-10-22T12:34:02.738Z,2.97
2022-10-22T12:36:29.223Z,3.80
2022-10-22T12:38:55.750Z,3.50
2022-10-22T12:41:22.417Z,2.73
2022-10-22T12:43:49.041Z,2.23
2022-10-22T12:46:15.603Z,3.00
2022-10-22T12:48:42.377Z,2.43
2022-10-22T12:51:08.869Z,3.30
2022-10-22T12:53:35.382Z,3.07
2022-10-22T12:56:02.038Z,3.20
2022-10-22T12:58:28.650Z,2.70
2022-10-22T13:00:55.339Z,3.23
2022-10-22T13:03:21.865Z,2.37
2022-10-22T13:05:48.383Z,2.20
2022-10-22T13:08:14.918Z,3.40
2022-10-22T13:10:41.446Z,2.53
2022-10-22T13:13:07.974Z,2.83
2022-10-22T13:15:34.496Z,4.47
2022-10-22T13:18:00.973Z,2.80
2022-10-22T13:20:27.531Z,2.20
2022-10-22T13:22:54.200Z,1.80
2022-10-22T13:25:21.018Z,2.17
2022-10-22T13:27:47.529Z,1.93
2022-10-22T13:30:15.193Z,1.90
2022-10-22T13:32:41.831Z,1.73
2022-10-22T13:35:08.369Z,2.10
2022-10-22T13:37:35.035Z,2.13
2022-10-22T13:40:01.529Z,2.10
2022-10-22T13:42:28.142Z,1.80
2022-10-22T13:44:54.789Z,1.77
2022-10-22T13:47:21.272Z,2.00
2022-10-22T13:49:47.867Z,1.80
2022-10-22T13:52:14.445Z,1.93
2022-10-22T13:54:40.938Z,1.97
2022-10-22T13:57:07.613Z,1.80
2022-10-22T13:59:34.151Z,2.47
2022-10-22T14:02:00.630Z,2.00
2022-10-22T14:04:27.329Z,1.90
2022-10-22T14:06:53.829Z,2.10
2022-10-22T14:09:20.540Z,2.17
2022-10-22T14:11:47.088Z,1.93
2022-10-22T14:14:13.721Z,1.93
2022-10-22T14:16:40.362Z,2.13
2022-10-22T14:19:06.985Z,1.60
2022-10-22T14:21:33.616Z,2.00
2022-10-22T14:24:00.150Z,2.10
2022-10-22T14:26:26.742Z,2.07
2022-10-22T14:29:10.373Z,1.83
2022-10-22T14:31:37.959Z,1.80
2022-10-22T14:34:04.488Z,1.90
2022-10-22T14:36:30.978Z,2.10
2022-10-22T14:38:57.596Z,1.93
2022-10-22T14:41:24.090Z,1.90
2022-10-22T14:43:50.609Z,1.80
2022-10-22T14:46:17.397Z,1.90
2022-10-22T14:48:43.977Z,2.00
2022-10-22T14:51:10.506Z,1.70
2022-10-22T14:56:17.499Z,1.60
2022-10-22T14:58:44.029Z,1.80
2022-10-22T15:01:10.611Z,1.80
2022-10-22T15:03:37.111Z,2.07
2022-10-22T15:06:03.679Z,1.70
2022-10-22T15:08:30.165Z,1.97
2022-10-22T15:10:56.788Z,1.63
2022-10-22T15:13:23.356Z,1.90
2022-10-22T15:15:49.844Z,1.97
2022-10-22T15:18:16.390Z,2.30
2022-10-22T15:20:42.875Z,1.83
2022-10-22T15:23:09.404Z,1.90
2022-10-22T15:25:35.969Z,1.90
2022-10-22T15:28:09.377Z,1.90
2022-10-22T15:30:36.273Z,1.80
2022-10-22T15:33:02.824Z,1.40
2022-10-22T15:35:29.327Z,1.67
2022-10-22T15:37:55.865Z,1.87
2022-10-22T15:40:22.353Z,1.83
2022-10-22T15:42:48.846Z,1.90
2022-10-22T15:45:15.380Z,3.10
2022-10-22T15:47:44.166Z,2.10
2022-10-22T15:50:11.625Z,2.03
2022-10-22T15:52:38.288Z,2.20
2022-10-22T15:55:05.171Z,2.00
2022-10-22T15:57:31.742Z,2.30
2022-10-22T15:59:58.469Z,2.40
2022-10-22T16:02:25.299Z,2.57
2022-10-22T16:04:51.816Z,2.30
2022-10-22T16:07:21.036Z,1.97
2022-10-22T16:09:50.407Z,2.43
2022-10-22T16:12:17.373Z,2.30
2022-10-22T16:14:43.992Z,2.50
2022-10-22T16:17:10.525Z,2.90
2022-10-22T16:19:37.008Z,2.83
2022-10-22T16:22:03.538Z,2.70
2022-10-22T16:24:30.052Z,3.50
2022-10-22T16:26:56.564Z,4.23
2022-10-22T16:29:23.071Z,4.13
2022-10-22T16:31:49.689Z,5.50
2022-10-22T16:34:16.325Z,5.00
2022-10-22T16:36:42.890Z,4.13
2022-10-22T16:39:09.454Z,3.50
2022-10-22T16:41:35.980Z,3.90
2022-10-22T16:44:02.478Z,15.33
2022-10-22T16:46:29.346Z,6.30
2022-10-22T16:48:55.874Z,6.77
2022-10-22T16:51:22.397Z,6.00
2022-10-22T16:53:48.888Z,17.60
2022-10-22T16:56:15.523Z,16.23
2022-10-22T16:58:42.094Z,15.43
2022-10-22T17:01:08.757Z,12.67
2022-10-22T17:03:35.507Z,8.90
2022-10-22T17:06:02.089Z,10.50
2022-10-22T17:08:28.640Z,16.23
2022-10-22T17:10:55.292Z,12.97
2022-10-22T17:13:22.145Z,15.03
2022-10-22T17:15:48.674Z,9.90
2022-10-22T17:18:15.308Z,93.90
2022-10-22T17:20:41.902Z,26.03
2022-10-22T17:23:08.535Z,5.30
2022-10-22T17:25:35.055Z,4.27
2022-10-22T17:28:01.625Z,4.43
2022-10-22T17:30:28.197Z,4.03
2022-10-22T17:32:54.874Z,4.37
2022-10-22T17:35:21.489Z,3.87
2022-10-22T17:37:48.022Z,6.50
2022-10-22T17:40:14.772Z,6.37
2022-10-22T17:42:41.649Z,5.40
2022-10-22T17:45:08.451Z,12.07
2022-10-22T17:47:35.022Z,9.20
2022-10-22T17:50:01.840Z,8.70
2022-10-22T17:52:28.414Z,7.10
2022-10-22T17:54:55.102Z,6.27
2022-10-22T17:57:22.006Z,5.73
2022-10-22T17:59:48.591Z,5.30
2022-10-22T18:02:15.099Z,8.73
2022-10-22T18:04:41.788Z,16.47
2022-10-22T18:07:08.374Z,5.63
2022-10-22T18:09:44.937Z,9.03
2022-10-22T18:12:23.210Z,9.33
2022-10-22T18:17:31.133Z,7.13
2022-10-22T18:19:59.412Z,6.40
2022-10-22T18:27:46.758Z,7.60
2022-10-22T18:30:13.313Z,7.87
2022-10-22T18:32:39.841Z,8.23
2022-10-22T18:35:06.322Z,8.57
2022-10-22T18:37:32.829Z,8.30
2022-10-22T18:39:59.355Z,8.63
2022-10-22T18:42:27.662Z,7.83
2022-10-22T18:44:57.512Z,9.03
2022-10-22T18:47:24.058Z,7.57
2022-10-22T18:49:50.699Z,8.53
2022-10-22T18:52:17.424Z,11.13
2022-10-22T18:54:43.910Z,10.47
2022-10-22T18:57:11.000Z,13.07
2022-10-22T18:59:37.568Z,16.00
2022-10-22T19:02:04.046Z,11.23
2022-10-22T19:04:30.590Z,9.70
2022-10-22T19:06:57.184Z,7.57
2022-10-22T19:09:23.771Z,7.20
2022-10-22T19:11:50.354Z,6.70
2022-10-22T19:14:16.917Z,5.23
2022-10-22T19:16:43.402Z,6.23
2022-10-22T19:19:09.932Z,8.50
2022-10-22T19:21:36.505Z,5.97
2022-10-22T19:24:03.050Z,4.90
2022-10-22T19:26:29.593Z,4.43
2022-10-22T19:28:56.138Z,4.70
2022-10-22T19:31:22.692Z,4.77
2022-10-22T19:33:49.292Z,5.37
2022-10-22T19:36:15.830Z,5.73
2022-10-22T19:38:42.540Z,4.83
2022-10-22T19:41:09.185Z,5.53
2022-10-22T19:43:35.717Z,5.53
2022-10-22T19:46:02.280Z,7.07
2022-10-22T19:48:28.950Z,7.30
2022-10-22T19:50:55.457Z,8.23
2022-10-22T19:53:22.066Z,8.53
2022-10-22T19:55:48.598Z,7.97
2022-10-22T19:58:15.110Z,7.43
2022-10-22T20:00:42.136Z,7.63
2022-10-22T20:03:08.866Z,7.53
2022-10-22T20:05:35.331Z,7.27
2022-10-22T20:08:01.966Z,6.20
2022-10-22T20:10:28.477Z,5.73
2022-10-22T20:12:54.958Z,7.90
2022-10-22T20:15:21.452Z,8.07
2022-10-22T20:17:47.990Z,9.77
2022-10-22T20:20:14.473Z,8.70
2022-10-22T20:22:41.223Z,7.33
2022-10-22T20:25:07.962Z,5.67
2022-10-22T20:27:34.482Z,6.03
2022-10-22T20:30:00.997Z,6.50
2022-10-22T20:32:27.524Z,5.53
2022-10-22T20:34:54.067Z,5.70
2022-10-22T20:37:20.554Z,5.77
2022-10-22T20:39:47.093Z,4.10
2022-10-22T20:42:13.605Z,4.30
2022-10-22T20:44:40.132Z,4.70
2022-10-22T20:47:06.659Z,6.23
2022-10-22T20:49:33.140Z,5.27
2022-10-22T20:51:59.661Z,4.73
2022-10-22T20:54:26.200Z,3.90
2022-10-22T20:56:52.691Z,3.13
2022-10-22T20:59:19.245Z,2.60
2022-10-22T21:01:45.747Z,2.50
2022-10-22T21:04:12.245Z,2.87
2022-10-22T21:06:38.763Z,3.20
2022-10-22T21:09:05.280Z,4.73
2022-10-22T21:11:31.988Z,5.10
2022-10-22T21:13:58.502Z,6.40
2022-10-22T21:16:24.996Z,6.27
2022-10-22T21:18:52.558Z,6.17
2022-10-22T21:21:19.045Z,5.60
2022-10-22T21:23:45.570Z,6.03
2022-10-22T21:26:12.124Z,5.80
2022-10-22T21:28:38.665Z,5.37
2022-10-22T21:31:05.154Z,6.57
2022-10-22T21:33:31.674Z,6.40
2022-10-22T21:35:58.202Z,5.70
2022-10-22T21:38:24.681Z,5.23
2022-10-22T21:40:51.217Z,5.10
2022-10-22T21:43:17.768Z,4.90
2022-10-22T21:45:44.299Z,4.13
2022-10-22T21:48:10.771Z,3.90
2022-10-22T21:50:37.339Z,3.47
2022-10-22T21:53:03.870Z,3.80
2022-10-22T21:55:30.345Z,3.97
2022-10-22T21:57:56.889Z,3.50
2022-10-22T22:00:23.384Z,3.03
2022-10-22T22:02:49.898Z,3.20
2022-10-22T22:05:16.417Z,3.00
2022-10-22T22:07:42.958Z,2.47
2022-10-22T22:10:09.473Z,2.60
2022-10-22T22:12:36.015Z,2.40
2022-10-22T22:15:03.543Z,2.50
2022-10-22T22:17:30.026Z,2.70
2022-10-22T22:19:56.506Z,2.40
2022-10-22T22:22:23.174Z,2.77
2022-10-22T22:24:49.640Z,3.10
2022-10-22T22:27:16.175Z,4.10
2022-10-22T22:29:42.723Z,3.80
2022-10-22T22:32:09.213Z,4.30
2022-10-22T22:34:35.698Z,3.93
2022-10-22T22:37:02.281Z,4.10
2022-10-22T22:39:28.766Z,5.23
2022-10-22T22:41:55.257Z,4.57
2022-10-22T22:44:21.823Z,4.70
2022-10-22T22:46:48.353Z,5.33
2022-10-22T22:49:14.872Z,4.73
2022-10-22T22:51:41.412Z,5.03
2022-10-22T22:54:07.893Z,5.80
2022-10-22T22:56:34.414Z,5.30
2022-10-22T22:59:00.929Z,5.37
2022-10-22T23:01:27.513Z,6.67
2022-10-22T23:03:54.194Z,5.20
2022-10-22T23:06:20.702Z,5.40
2022-10-22T23:08:47.265Z,4.87
2022-10-22T23:11:13.793Z,6.57
2022-10-22T23:13:40.362Z,5.33
2022-10-22T23:16:06.881Z,5.57
2022-10-22T23:18:33.393Z,5.80
2022-10-22T23:20:59.909Z,5.27
2022-10-22T23:23:26.435Z,5.60
2022-10-22T23:25:53.053Z,4.93
2022-10-22T23:28:19.598Z,4.77
2022-10-22T23:30:46.122Z,4.50
2022-10-22T23:33:12.640Z,5.50
2022-10-22T23:35:39.152Z,5.33
2022-10-22T23:38:05.677Z,5.67
2022-10-22T23:40:32.230Z,5.30
2022-10-22T23:42:58.746Z,5.67
2022-10-22T23:45:25.231Z,5.90
2022-10-22T23:47:51.718Z,5.40
2022-10-22T23:50:18.243Z,5.60
2022-10-22T23:52:44.899Z,5.30
2022-10-22T23:55:11.530Z,5.37
2022-10-22T23:57:38.039Z,5.23
